sensor_id;sensor_type;location;lat;lon;timestamp;P1;durP1;ratioP1;P2;durP2;ratioP2
55172;SDS011;41061;52.822;6.860;2023-03-21T00:00:29;43.67;;;27.20;;
55172;SDS011;41061;52.822;6.860;2023-03-21T00:02:55;54.45;;;28.25;;
55172;SDS011;41061;52.822;6.860;2023-03-21T00:05:21;46.42;;;27.73;;
55172;SDS011;41061;52.822;6.860;2023-03-21T00:07:47;48.25;;;28.08;;
55172;SDS011;41061;52.822;6.860;2023-03-21T00:10:13;51.63;;;28.48;;
55172;SDS011;41061;52.822;6.860;2023-03-21T00:12:39;50.80;;;28.35;;
55172;SDS011;41061;52.822;6.860;2023-03-21T00:15:07;55.53;;;29.40;;
55172;SDS011;41061;52.822;6.860;2023-03-21T00:17:35;48.40;;;28.58;;
55172;SDS011;41061;52.822;6.860;2023-03-21T00:20:03;53.50;;;30.67;;
55172;SDS011;41061;52.822;6.860;2023-03-21T00:22:32;49.28;;;28.63;;
55172;SDS011;41061;52.822;6.860;2023-03-21T00:24:59;49.95;;;30.27;;
55172;SDS011;41061;52.822;6.860;2023-03-21T00:27:25;54.95;;;29.55;;
55172;SDS011;41061;52.822;6.860;2023-03-21T00:29:51;56.13;;;30.35;;
55172;SDS011;41061;52.822;6.860;2023-03-21T00:32:18;53.15;;;30.08;;
55172;SDS011;41061;52.822;6.860;2023-03-21T00:34:45;52.63;;;30.63;;
55172;SDS011;41061;52.822;6.860;2023-03-21T00:37:11;54.92;;;30.08;;
55172;SDS011;41061;52.822;6.860;2023-03-21T00:39:40;57.78;;;30.58;;
55172;SDS011;41061;52.822;6.860;2023-03-21T00:42:07;58.65;;;30.58;;
55172;SDS011;41061;52.822;6.860;2023-03-21T00:44:33;51.67;;;30.20;;
55172;SDS011;41061;52.822;6.860;2023-03-21T00:47:03;56.63;;;29.67;;
55172;SDS011;41061;52.822;6.860;2023-03-21T00:49:30;49.28;;;28.80;;
55172;SDS011;41061;52.822;6.860;2023-03-21T00:51:59;47.83;;;28.05;;
55172;SDS011;41061;52.822;6.860;2023-03-21T00:54:25;50.60;;;29.45;;
55172;SDS011;41061;52.822;6.860;2023-03-21T00:56:51;58.50;;;28.83;;
55172;SDS011;41061;52.822;6.860;2023-03-21T00:59:17;48.88;;;27.92;;
55172;SDS011;41061;52.822;6.860;2023-03-21T01:01:43;51.17;;;27.80;;
55172;SDS011;41061;52.822;6.860;2023-03-21T01:04:10;47.78;;;27.60;;
55172;SDS011;41061;52.822;6.860;2023-03-21T01:06:41;46.50;;;26.30;;
55172;SDS011;41061;52.822;6.860;2023-03-21T01:09:16;48.53;;;26.70;;
55172;SDS011;41061;52.822;6.860;2023-03-21T01:11:44;51.22;;;26.90;;
55172;SDS011;41061;52.822;6.860;2023-03-21T01:14:10;50.78;;;27.73;;
55172;SDS011;41061;52.822;6.860;2023-03-21T01:16:37;51.13;;;28.02;;
55172;SDS011;41061;52.822;6.860;2023-03-21T01:19:03;48.58;;;26.75;;
55172;SDS011;41061;52.822;6.860;2023-03-21T01:21:31;47.75;;;26.50;;
55172;SDS011;41061;52.822;6.860;2023-03-21T01:23:57;44.30;;;27.65;;
55172;SDS011;41061;52.822;6.860;2023-03-21T01:26:23;45.35;;;26.17;;
55172;SDS011;41061;52.822;6.860;2023-03-21T01:28:49;47.35;;;26.73;;
55172;SDS011;41061;52.822;6.860;2023-03-21T01:31:15;45.50;;;24.23;;
55172;SDS011;41061;52.822;6.860;2023-03-21T01:33:41;50.85;;;25.88;;
55172;SDS011;41061;52.822;6.860;2023-03-21T01:36:18;46.88;;;25.73;;
55172;SDS011;41061;52.822;6.860;2023-03-21T01:38:46;46.78;;;24.58;;
55172;SDS011;41061;52.822;6.860;2023-03-21T01:41:32;52.03;;;26.45;;
55172;SDS011;41061;52.822;6.860;2023-03-21T01:44:09;65.68;;;29.25;;
55172;SDS011;41061;52.822;6.860;2023-03-21T01:46:41;59.30;;;27.42;;
55172;SDS011;41061;52.822;6.860;2023-03-21T01:49:13;55.28;;;27.77;;
55172;SDS011;41061;52.822;6.860;2023-03-21T01:51:57;49.78;;;25.88;;
55172;SDS011;41061;52.822;6.860;2023-03-21T01:54:27;53.53;;;27.13;;
55172;SDS011;41061;52.822;6.860;2023-03-21T01:56:59;42.97;;;26.27;;
55172;SDS011;41061;52.822;6.860;2023-03-21T01:59:38;49.72;;;27.13;;
55172;SDS011;41061;52.822;6.860;2023-03-21T02:02:10;43.45;;;25.67;;
55172;SDS011;41061;52.822;6.860;2023-03-21T02:04:41;42.33;;;23.60;;
55172;SDS011;41061;52.822;6.860;2023-03-21T02:07:24;38.33;;;24.38;;
55172;SDS011;41061;52.822;6.860;2023-03-21T02:09:55;35.88;;;21.48;;
55172;SDS011;41061;52.822;6.860;2023-03-21T02:12:22;36.88;;;20.90;;
55172;SDS011;41061;52.822;6.860;2023-03-21T02:14:49;34.05;;;19.90;;
55172;SDS011;41061;52.822;6.860;2023-03-21T02:36:14;35.90;;;21.90;;
55172;SDS011;41061;52.822;6.860;2023-03-21T02:39:22;37.87;;;21.87;;
55172;SDS011;41061;52.822;6.860;2023-03-21T02:44:40;39.38;;;22.25;;
55172;SDS011;41061;52.822;6.860;2023-03-21T02:47:24;35.10;;;20.92;;
55172;SDS011;41061;52.822;6.860;2023-03-21T02:52:21;31.00;;;20.13;;
55172;SDS011;41061;52.822;6.860;2023-03-21T02:54:51;31.48;;;19.63;;
55172;SDS011;41061;52.822;6.860;2023-03-21T02:57:17;34.58;;;19.10;;
55172;SDS011;41061;52.822;6.860;2023-03-21T02:59:44;31.23;;;19.13;;
55172;SDS011;41061;52.822;6.860;2023-03-21T03:02:12;27.67;;;18.65;;
55172;SDS011;41061;52.822;6.860;2023-03-21T03:04:41;32.63;;;19.58;;
55172;SDS011;41061;52.822;6.860;2023-03-21T03:20:52;26.77;;;16.55;;
55172;SDS011;41061;52.822;6.860;2023-03-21T03:26:07;26.33;;;17.42;;
55172;SDS011;41061;52.822;6.860;2023-03-21T03:28:44;27.95;;;17.02;;
55172;SDS011;41061;52.822;6.860;2023-03-21T03:31:15;28.67;;;17.10;;
55172;SDS011;41061;52.822;6.860;2023-03-21T03:33:46;30.45;;;16.98;;
55172;SDS011;41061;52.822;6.860;2023-03-21T03:36:16;29.58;;;17.17;;
55172;SDS011;41061;52.822;6.860;2023-03-21T03:38:45;26.10;;;16.73;;
55172;SDS011;41061;52.822;6.860;2023-03-21T03:41:20;24.30;;;16.75;;
55172;SDS011;41061;52.822;6.860;2023-03-21T03:43:51;27.88;;;17.63;;
55172;SDS011;41061;52.822;6.860;2023-03-21T03:46:29;26.60;;;17.77;;
55172;SDS011;41061;52.822;6.860;2023-03-21T03:49:13;32.03;;;18.10;;
55172;SDS011;41061;52.822;6.860;2023-03-21T03:51:58;26.48;;;17.05;;
55172;SDS011;41061;52.822;6.860;2023-03-21T03:54:32;29.08;;;17.83;;
55172;SDS011;41061;52.822;6.860;2023-03-21T03:57:02;30.88;;;17.17;;
55172;SDS011;41061;52.822;6.860;2023-03-21T03:59:30;27.45;;;16.92;;
55172;SDS011;41061;52.822;6.860;2023-03-21T04:01:59;30.98;;;18.85;;
55172;SDS011;41061;52.822;6.860;2023-03-21T04:04:25;32.85;;;18.90;;
55172;SDS011;41061;52.822;6.860;2023-03-21T04:06:52;35.70;;;18.92;;
55172;SDS011;41061;52.822;6.860;2023-03-21T04:09:18;31.60;;;19.88;;
55172;SDS011;41061;52.822;6.860;2023-03-21T04:11:44;30.05;;;19.23;;
55172;SDS011;41061;52.822;6.860;2023-03-21T04:14:09;32.30;;;19.10;;
55172;SDS011;41061;52.822;6.860;2023-03-21T04:16:35;31.77;;;19.73;;
55172;SDS011;41061;52.822;6.860;2023-03-21T04:19:01;29.55;;;19.05;;
55172;SDS011;41061;52.822;6.860;2023-03-21T04:21:27;36.40;;;20.52;;
55172;SDS011;41061;52.822;6.860;2023-03-21T04:23:53;33.55;;;19.50;;
55172;SDS011;41061;52.822;6.860;2023-03-21T04:26:19;33.45;;;20.10;;
55172;SDS011;41061;52.822;6.860;2023-03-21T04:28:46;35.00;;;20.38;;
55172;SDS011;41061;52.822;6.860;2023-03-21T04:31:12;37.17;;;20.15;;
55172;SDS011;41061;52.822;6.860;2023-03-21T04:33:38;34.15;;;19.38;;
55172;SDS011;41061;52.822;6.860;2023-03-21T04:36:05;30.25;;;19.08;;
55172;SDS011;41061;52.822;6.860;2023-03-21T04:38:33;35.13;;;20.30;;
55172;SDS011;41061;52.822;6.860;2023-03-21T04:41:00;38.03;;;20.70;;
55172;SDS011;41061;52.822;6.860;2023-03-21T04:43:26;32.22;;;20.20;;
55172;SDS011;41061;52.822;6.860;2023-03-21T04:45:52;37.70;;;19.98;;
55172;SDS011;41061;52.822;6.860;2023-03-21T04:48:18;41.75;;;21.38;;
55172;SDS011;41061;52.822;6.860;2023-03-21T04:50:48;45.15;;;22.95;;
55172;SDS011;41061;52.822;6.860;2023-03-21T04:53:14;38.05;;;21.75;;
55172;SDS011;41061;52.822;6.860;2023-03-21T04:55:40;39.05;;;23.00;;
55172;SDS011;41061;52.822;6.860;2023-03-21T04:58:06;43.80;;;21.38;;
55172;SDS011;41061;52.822;6.860;2023-03-21T05:00:32;44.13;;;23.17;;
55172;SDS011;41061;52.822;6.860;2023-03-21T05:03:02;40.88;;;23.58;;
55172;SDS011;41061;52.822;6.860;2023-03-21T05:05:34;36.92;;;22.50;;
55172;SDS011;41061;52.822;6.860;2023-03-21T05:08:00;49.22;;;24.23;;
55172;SDS011;41061;52.822;6.860;2023-03-21T05:10:26;44.75;;;24.02;;
55172;SDS011;41061;52.822;6.860;2023-03-21T05:12:52;43.47;;;24.50;;
55172;SDS011;41061;52.822;6.860;2023-03-21T05:15:18;39.00;;;24.38;;
55172;SDS011;41061;52.822;6.860;2023-03-21T05:17:43;44.47;;;23.85;;
55172;SDS011;41061;52.822;6.860;2023-03-21T05:20:12;46.40;;;23.80;;
55172;SDS011;41061;52.822;6.860;2023-03-21T05:22:40;53.10;;;25.00;;
55172;SDS011;41061;52.822;6.860;2023-03-21T05:25:07;49.85;;;24.33;;
55172;SDS011;41061;52.822;6.860;2023-03-21T05:27:34;45.97;;;24.55;;
55172;SDS011;41061;52.822;6.860;2023-03-21T05:30:01;51.78;;;26.05;;
55172;SDS011;41061;52.822;6.860;2023-03-21T05:32:32;41.67;;;24.48;;
55172;SDS011;41061;52.822;6.860;2023-03-21T05:34:58;49.55;;;26.45;;
55172;SDS011;41061;52.822;6.860;2023-03-21T05:37:24;45.80;;;24.58;;
55172;SDS011;41061;52.822;6.860;2023-03-21T05:39:50;46.08;;;23.52;;
55172;SDS011;41061;52.822;6.860;2023-03-21T05:42:15;43.33;;;23.58;;
55172;SDS011;41061;52.822;6.860;2023-03-21T05:44:45;46.92;;;24.10;;
55172;SDS011;41061;52.822;6.860;2023-03-21T05:47:12;51.45;;;25.15;;
55172;SDS011;41061;52.822;6.860;2023-03-21T05:49:38;42.15;;;23.52;;
55172;SDS011;41061;52.822;6.860;2023-03-21T05:52:04;53.30;;;25.10;;
55172;SDS011;41061;52.822;6.860;2023-03-21T05:54:30;48.72;;;25.10;;
55172;SDS011;41061;52.822;6.860;2023-03-21T05:56:56;42.08;;;23.55;;
55172;SDS011;41061;52.822;6.860;2023-03-21T05:59:21;51.10;;;25.35;;
55172;SDS011;41061;52.822;6.860;2023-03-21T06:01:47;47.22;;;24.63;;
55172;SDS011;41061;52.822;6.860;2023-03-21T06:04:13;44.22;;;24.33;;
55172;SDS011;41061;52.822;6.860;2023-03-21T06:06:39;51.90;;;24.83;;
55172;SDS011;41061;52.822;6.860;2023-03-21T06:09:05;50.50;;;24.77;;
55172;SDS011;41061;52.822;6.860;2023-03-21T06:11:32;45.15;;;24.10;;
55172;SDS011;41061;52.822;6.860;2023-03-21T06:14:02;43.75;;;23.75;;
55172;SDS011;41061;52.822;6.860;2023-03-21T06:16:28;39.20;;;21.52;;
55172;SDS011;41061;52.822;6.860;2023-03-21T06:18:54;50.38;;;23.85;;
55172;SDS011;41061;52.822;6.860;2023-03-21T06:21:20;43.83;;;22.42;;
55172;SDS011;41061;52.822;6.860;2023-03-21T06:23:46;38.63;;;20.80;;
55172;SDS011;41061;52.822;6.860;2023-03-21T06:26:12;43.60;;;21.17;;
55172;SDS011;41061;52.822;6.860;2023-03-21T06:28:38;48.10;;;21.73;;
55172;SDS011;41061;52.822;6.860;2023-03-21T06:31:04;36.72;;;20.42;;
55172;SDS011;41061;52.822;6.860;2023-03-21T06:33:30;38.10;;;20.42;;
55172;SDS011;41061;52.822;6.860;2023-03-21T06:35:57;36.00;;;19.70;;
55172;SDS011;41061;52.822;6.860;2023-03-21T06:38:23;29.55;;;18.70;;
55172;SDS011;41061;52.822;6.860;2023-03-21T06:40:49;32.78;;;18.58;;
55172;SDS011;41061;52.822;6.860;2023-03-21T06:43:15;31.27;;;18.45;;
55172;SDS011;41061;52.822;6.860;2023-03-21T06:45:41;33.10;;;18.92;;
55172;SDS011;41061;52.822;6.860;2023-03-21T06:48:07;34.45;;;19.25;;
55172;SDS011;41061;52.822;6.860;2023-03-21T06:50:33;35.00;;;19.77;;
55172;SDS011;41061;52.822;6.860;2023-03-21T06:52:59;33.50;;;18.60;;
55172;SDS011;41061;52.822;6.860;2023-03-21T06:55:25;35.53;;;18.90;;
55172;SDS011;41061;52.822;6.860;2023-03-21T06:57:53;32.00;;;19.38;;
55172;SDS011;41061;52.822;6.860;2023-03-21T07:00:20;34.85;;;18.15;;
55172;SDS011;41061;52.822;6.860;2023-03-21T07:02:46;33.38;;;18.27;;
55172;SDS011;41061;52.822;6.860;2023-03-21T07:05:13;28.17;;;16.48;;
55172;SDS011;41061;52.822;6.860;2023-03-21T07:07:39;30.52;;;16.77;;
55172;SDS011;41061;52.822;6.860;2023-03-21T07:10:05;28.92;;;16.92;;
55172;SDS011;41061;52.822;6.860;2023-03-21T07:12:32;25.30;;;15.40;;
55172;SDS011;41061;52.822;6.860;2023-03-21T07:14:58;25.52;;;14.45;;
55172;SDS011;41061;52.822;6.860;2023-03-21T07:17:24;22.38;;;14.20;;
55172;SDS011;41061;52.822;6.860;2023-03-21T07:19:50;20.25;;;14.00;;
55172;SDS011;41061;52.822;6.860;2023-03-21T07:22:16;24.67;;;13.50;;
55172;SDS011;41061;52.822;6.860;2023-03-21T07:24:42;23.33;;;14.00;;
55172;SDS011;41061;52.822;6.860;2023-03-21T07:27:08;21.88;;;14.05;;
55172;SDS011;41061;52.822;6.860;2023-03-21T07:29:34;26.10;;;14.23;;
55172;SDS011;41061;52.822;6.860;2023-03-21T07:32:00;18.80;;;12.93;;
55172;SDS011;41061;52.822;6.860;2023-03-21T07:34:25;20.17;;;13.32;;
55172;SDS011;41061;52.822;6.860;2023-03-21T07:36:55;20.05;;;13.45;;
55172;SDS011;41061;52.822;6.860;2023-03-21T07:39:21;19.45;;;13.55;;
55172;SDS011;41061;52.822;6.860;2023-03-21T07:41:47;21.80;;;13.82;;
55172;SDS011;41061;52.822;6.860;2023-03-21T07:44:13;19.30;;;13.18;;
55172;SDS011;41061;52.822;6.860;2023-03-21T07:46:39;20.58;;;13.55;;
55172;SDS011;41061;52.822;6.860;2023-03-21T07:49:05;21.83;;;12.45;;
55172;SDS011;41061;52.822;6.860;2023-03-21T07:51:33;20.98;;;12.90;;
55172;SDS011;41061;52.822;6.860;2023-03-21T07:54:00;24.35;;;13.38;;
55172;SDS011;41061;52.822;6.860;2023-03-21T07:56:26;19.20;;;12.95;;
55172;SDS011;41061;52.822;6.860;2023-03-21T07:58:53;26.55;;;14.20;;
55172;SDS011;41061;52.822;6.860;2023-03-21T08:01:18;23.20;;;13.45;;
55172;SDS011;41061;52.822;6.860;2023-03-21T08:03:45;23.02;;;13.68;;
55172;SDS011;41061;52.822;6.860;2023-03-21T08:06:12;23.77;;;13.73;;
55172;SDS011;41061;52.822;6.860;2023-03-21T08:08:38;26.60;;;13.68;;
55172;SDS011;41061;52.822;6.860;2023-03-21T08:11:04;22.35;;;12.52;;
55172;SDS011;41061;52.822;6.860;2023-03-21T08:13:30;22.63;;;12.93;;
55172;SDS011;41061;52.822;6.860;2023-03-21T08:15:56;23.00;;;13.52;;
55172;SDS011;41061;52.822;6.860;2023-03-21T08:18:22;26.00;;;13.68;;
55172;SDS011;41061;52.822;6.860;2023-03-21T08:20:54;26.60;;;13.07;;
55172;SDS011;41061;52.822;6.860;2023-03-21T08:23:21;21.08;;;13.20;;
55172;SDS011;41061;52.822;6.860;2023-03-21T08:25:51;21.58;;;12.13;;
55172;SDS011;41061;52.822;6.860;2023-03-21T08:28:18;20.77;;;11.98;;
55172;SDS011;41061;52.822;6.860;2023-03-21T08:30:44;27.13;;;13.05;;
55172;SDS011;41061;52.822;6.860;2023-03-21T08:33:10;21.17;;;12.27;;
55172;SDS011;41061;52.822;6.860;2023-03-21T08:35:37;19.42;;;11.60;;
55172;SDS011;41061;52.822;6.860;2023-03-21T08:38:03;19.50;;;12.07;;
55172;SDS011;41061;52.822;6.860;2023-03-21T08:40:30;22.23;;;12.60;;
55172;SDS011;41061;52.822;6.860;2023-03-21T08:42:56;23.33;;;11.85;;
55172;SDS011;41061;52.822;6.860;2023-03-21T08:45:21;22.02;;;12.02;;
55172;SDS011;41061;52.822;6.860;2023-03-21T08:47:47;20.17;;;12.00;;
55172;SDS011;41061;52.822;6.860;2023-03-21T08:50:17;18.27;;;11.70;;
55172;SDS011;41061;52.822;6.860;2023-03-21T08:52:45;25.17;;;12.80;;
55172;SDS011;41061;52.822;6.860;2023-03-21T08:55:11;21.33;;;12.75;;
55172;SDS011;41061;52.822;6.860;2023-03-21T08:57:37;22.50;;;13.10;;
55172;SDS011;41061;52.822;6.860;2023-03-21T09:00:04;22.73;;;12.65;;
55172;SDS011;41061;52.822;6.860;2023-03-21T09:02:37;31.30;;;12.38;;
55172;SDS011;41061;52.822;6.860;2023-03-21T09:05:03;28.52;;;13.27;;
55172;SDS011;41061;52.822;6.860;2023-03-21T09:07:30;28.73;;;12.80;;
55172;SDS011;41061;52.822;6.860;2023-03-21T09:09:58;20.95;;;12.65;;
55172;SDS011;41061;52.822;6.860;2023-03-21T09:12:25;28.13;;;12.90;;
55172;SDS011;41061;52.822;6.860;2023-03-21T09:14:54;30.73;;;13.60;;
55172;SDS011;41061;52.822;6.860;2023-03-21T09:17:20;27.23;;;13.57;;
55172;SDS011;41061;52.822;6.860;2023-03-21T09:19:45;36.55;;;13.95;;
55172;SDS011;41061;52.822;6.860;2023-03-21T09:22:13;25.23;;;12.23;;
55172;SDS011;41061;52.822;6.860;2023-03-21T09:24:41;24.98;;;13.32;;
55172;SDS011;41061;52.822;6.860;2023-03-21T09:27:10;35.22;;;13.10;;
55172;SDS011;41061;52.822;6.860;2023-03-21T09:29:36;23.15;;;13.15;;
55172;SDS011;41061;52.822;6.860;2023-03-21T09:32:02;25.02;;;13.93;;
55172;SDS011;41061;52.822;6.860;2023-03-21T09:34:29;27.45;;;13.30;;
55172;SDS011;41061;52.822;6.860;2023-03-21T09:36:55;25.00;;;13.07;;
55172;SDS011;41061;52.822;6.860;2023-03-21T09:39:22;29.05;;;12.88;;
55172;SDS011;41061;52.822;6.860;2023-03-21T09:49:30;24.80;;;13.65;;
55172;SDS011;41061;52.822;6.860;2023-03-21T09:52:01;26.38;;;13.27;;
55172;SDS011;41061;52.822;6.860;2023-03-21T09:54:37;34.55;;;13.27;;
55172;SDS011;41061;52.822;6.860;2023-03-21T09:57:15;35.45;;;13.43;;
55172;SDS011;41061;52.822;6.860;2023-03-21T09:59:49;29.17;;;12.73;;
55172;SDS011;41061;52.822;6.860;2023-03-21T10:02:20;29.13;;;13.07;;
55172;SDS011;41061;52.822;6.860;2023-03-21T10:05:37;25.50;;;13.43;;
55172;SDS011;41061;52.822;6.860;2023-03-21T10:08:04;27.50;;;14.32;;
55172;SDS011;41061;52.822;6.860;2023-03-21T10:10:35;25.15;;;12.68;;
55172;SDS011;41061;52.822;6.860;2023-03-21T10:13:09;23.10;;;13.57;;
55172;SDS011;41061;52.822;6.860;2023-03-21T10:15:39;24.40;;;13.05;;
55172;SDS011;41061;52.822;6.860;2023-03-21T10:18:06;27.40;;;13.25;;
55172;SDS011;41061;52.822;6.860;2023-03-21T10:20:37;24.42;;;12.82;;
55172;SDS011;41061;52.822;6.860;2023-03-21T10:23:06;25.40;;;13.18;;
55172;SDS011;41061;52.822;6.860;2023-03-21T10:25:43;22.38;;;12.65;;
55172;SDS011;41061;52.822;6.860;2023-03-21T10:28:20;28.73;;;13.20;;
55172;SDS011;41061;52.822;6.860;2023-03-21T10:30:52;27.05;;;13.38;;
55172;SDS011;41061;52.822;6.860;2023-03-21T10:33:38;28.80;;;13.23;;
55172;SDS011;41061;52.822;6.860;2023-03-21T10:36:11;21.55;;;11.77;;
55172;SDS011;41061;52.822;6.860;2023-03-21T10:38:54;24.48;;;11.70;;
55172;SDS011;41061;52.822;6.860;2023-03-21T10:41:24;21.20;;;11.48;;
55172;SDS011;41061;52.822;6.860;2023-03-21T10:44:09;24.15;;;12.73;;
55172;SDS011;41061;52.822;6.860;2023-03-21T10:46:57;18.15;;;11.95;;
55172;SDS011;41061;52.822;6.860;2023-03-21T10:49:33;24.33;;;13.25;;
55172;SDS011;41061;52.822;6.860;2023-03-21T10:52:02;24.38;;;11.68;;
55172;SDS011;41061;52.822;6.860;2023-03-21T10:54:31;20.67;;;11.80;;
55172;SDS011;41061;52.822;6.860;2023-03-21T10:59:41;26.90;;;12.48;;
55172;SDS011;41061;52.822;6.860;2023-03-21T11:02:17;23.58;;;12.18;;
55172;SDS011;41061;52.822;6.860;2023-03-21T11:04:48;19.85;;;12.07;;
55172;SDS011;41061;52.822;6.860;2023-03-21T11:07:14;23.92;;;11.73;;
55172;SDS011;41061;52.822;6.860;2023-03-21T11:09:47;25.25;;;13.00;;
55172;SDS011;41061;52.822;6.860;2023-03-21T11:12:28;20.38;;;11.90;;
55172;SDS011;41061;52.822;6.860;2023-03-21T11:17:39;26.00;;;12.98;;
55172;SDS011;41061;52.822;6.860;2023-03-21T11:20:06;21.17;;;12.60;;
55172;SDS011;41061;52.822;6.860;2023-03-21T11:22:40;21.27;;;12.13;;
55172;SDS011;41061;52.822;6.860;2023-03-21T11:25:08;24.27;;;12.32;;
55172;SDS011;41061;52.822;6.860;2023-03-21T11:27:55;22.88;;;11.02;;
55172;SDS011;41061;52.822;6.860;2023-03-21T11:30:22;23.23;;;10.57;;
55172;SDS011;41061;52.822;6.860;2023-03-21T11:32:50;23.60;;;9.35;;
55172;SDS011;41061;52.822;6.860;2023-03-21T11:35:23;21.15;;;10.10;;
55172;SDS011;41061;52.822;6.860;2023-03-21T11:37:53;21.17;;;9.27;;
55172;SDS011;41061;52.822;6.860;2023-03-21T11:40:24;20.95;;;9.20;;
55172;SDS011;41061;52.822;6.860;2023-03-21T11:42:59;21.13;;;9.10;;
55172;SDS011;41061;52.822;6.860;2023-03-21T11:45:30;22.92;;;9.25;;
55172;SDS011;41061;52.822;6.860;2023-03-21T11:47:59;18.75;;;8.10;;
55172;SDS011;41061;52.822;6.860;2023-03-21T11:50:30;17.73;;;7.55;;
55172;SDS011;41061;52.822;6.860;2023-03-21T12:09:33;12.82;;;6.70;;
55172;SDS011;41061;52.822;6.860;2023-03-21T12:14:46;15.43;;;7.05;;
55172;SDS011;41061;52.822;6.860;2023-03-21T12:37:04;15.90;;;6.75;;
55172;SDS011;41061;52.822;6.860;2023-03-21T12:39:39;10.80;;;6.28;;
55172;SDS011;41061;52.822;6.860;2023-03-21T12:45:01;11.32;;;6.43;;
55172;SDS011;41061;52.822;6.860;2023-03-21T12:47:33;16.40;;;6.50;;
55172;SDS011;41061;52.822;6.860;2023-03-21T12:50:20;12.93;;;6.72;;
55172;SDS011;41061;52.822;6.860;2023-03-21T12:52:55;12.57;;;6.43;;
55172;SDS011;41061;52.822;6.860;2023-03-21T12:55:30;16.30;;;5.93;;
55172;SDS011;41061;52.822;6.860;2023-03-21T12:58:10;13.05;;;6.05;;
55172;SDS011;41061;52.822;6.860;2023-03-21T13:00:47;12.05;;;5.50;;
55172;SDS011;41061;52.822;6.860;2023-03-21T13:03:18;10.40;;;6.57;;
55172;SDS011;41061;52.822;6.860;2023-03-21T13:06:04;16.30;;;7.10;;
55172;SDS011;41061;52.822;6.860;2023-03-21T13:11:16;11.57;;;5.90;;
55172;SDS011;41061;52.822;6.860;2023-03-21T13:16:28;14.68;;;6.88;;
55172;SDS011;41061;52.822;6.860;2023-03-21T13:19:07;11.05;;;6.20;;
55172;SDS011;41061;52.822;6.860;2023-03-21T13:24:41;14.90;;;7.05;;
55172;SDS011;41061;52.822;6.860;2023-03-21T13:27:21;15.32;;;6.57;;
55172;SDS011;41061;52.822;6.860;2023-03-21T13:29:51;19.05;;;7.53;;
55172;SDS011;41061;52.822;6.860;2023-03-21T13:32:34;12.90;;;6.57;;
55172;SDS011;41061;52.822;6.860;2023-03-21T13:35:14;11.70;;;6.95;;
55172;SDS011;41061;52.822;6.860;2023-03-21T13:37:49;11.70;;;6.72;;
55172;SDS011;41061;52.822;6.860;2023-03-21T13:41:08;13.80;;;6.68;;
55172;SDS011;41061;52.822;6.860;2023-03-21T13:46:12;11.25;;;6.53;;
55172;SDS011;41061;52.822;6.860;2023-03-21T13:48:59;12.35;;;7.00;;
55172;SDS011;41061;52.822;6.860;2023-03-21T13:56:55;13.65;;;7.10;;
55172;SDS011;41061;52.822;6.860;2023-03-21T13:59:37;17.10;;;7.20;;
55172;SDS011;41061;52.822;6.860;2023-03-21T14:05:02;16.17;;;7.13;;
55172;SDS011;41061;52.822;6.860;2023-03-21T14:07:40;14.38;;;6.78;;
55172;SDS011;41061;52.822;6.860;2023-03-21T14:10:18;14.90;;;6.82;;
55172;SDS011;41061;52.822;6.860;2023-03-21T14:12:45;12.32;;;6.68;;
55172;SDS011;41061;52.822;6.860;2023-03-21T14:17:37;19.00;;;7.60;;
55172;SDS011;41061;52.822;6.860;2023-03-21T14:20:24;15.30;;;7.22;;
55172;SDS011;41061;52.822;6.860;2023-03-21T14:23:05;12.07;;;7.00;;
55172;SDS011;41061;52.822;6.860;2023-03-21T14:25:33;13.18;;;6.35;;
55172;SDS011;41061;52.822;6.860;2023-03-21T14:28:02;18.80;;;6.80;;
55172;SDS011;41061;52.822;6.860;2023-03-21T14:30:35;12.70;;;6.55;;
55172;SDS011;41061;52.822;6.860;2023-03-21T14:33:10;15.25;;;7.13;;
55172;SDS011;41061;52.822;6.860;2023-03-21T14:35:44;13.52;;;7.03;;
55172;SDS011;41061;52.822;6.860;2023-03-21T14:38:19;13.55;;;6.22;;
55172;SDS011;41061;52.822;6.860;2023-03-21T14:40:51;12.63;;;6.50;;
55172;SDS011;41061;52.822;6.860;2023-03-21T14:43:19;15.15;;;6.93;;
55172;SDS011;41061;52.822;6.860;2023-03-21T14:45:47;13.10;;;6.43;;
55172;SDS011;41061;52.822;6.860;2023-03-21T14:48:18;14.20;;;6.63;;
55172;SDS011;41061;52.822;6.860;2023-03-21T14:50:46;15.02;;;6.13;;
55172;SDS011;41061;52.822;6.860;2023-03-21T14:53:31;14.18;;;6.22;;
55172;SDS011;41061;52.822;6.860;2023-03-21T14:56:01;13.85;;;5.43;;
55172;SDS011;41061;52.822;6.860;2023-03-21T14:58:31;11.02;;;5.50;;
55172;SDS011;41061;52.822;6.860;2023-03-21T15:01:02;13.55;;;5.85;;
55172;SDS011;41061;52.822;6.860;2023-03-21T15:03:30;9.70;;;5.45;;
55172;SDS011;41061;52.822;6.860;2023-03-21T15:05:56;10.98;;;5.40;;
55172;SDS011;41061;52.822;6.860;2023-03-21T15:08:24;14.32;;;6.28;;
55172;SDS011;41061;52.822;6.860;2023-03-21T15:10:55;14.13;;;5.50;;
55172;SDS011;41061;52.822;6.860;2023-03-21T15:13:29;10.68;;;6.63;;
55172;SDS011;41061;52.822;6.860;2023-03-21T15:15:58;8.57;;;5.45;;
55172;SDS011;41061;52.822;6.860;2023-03-21T15:18:28;16.02;;;6.32;;
55172;SDS011;41061;52.822;6.860;2023-03-21T15:20:57;14.88;;;6.32;;
55172;SDS011;41061;52.822;6.860;2023-03-21T15:24:00;13.63;;;5.72;;
55172;SDS011;41061;52.822;6.860;2023-03-21T15:26:39;17.52;;;5.85;;
55172;SDS011;41061;52.822;6.860;2023-03-21T15:29:10;10.63;;;6.13;;
55172;SDS011;41061;52.822;6.860;2023-03-21T15:31:38;12.65;;;5.60;;
55172;SDS011;41061;52.822;6.860;2023-03-21T15:34:04;11.32;;;5.90;;
55172;SDS011;41061;52.822;6.860;2023-03-21T15:36:31;11.88;;;6.03;;
55172;SDS011;41061;52.822;6.860;2023-03-21T15:39:05;11.80;;;6.15;;
55172;SDS011;41061;52.822;6.860;2023-03-21T15:41:33;11.95;;;5.85;;
55172;SDS011;41061;52.822;6.860;2023-03-21T15:46:44;11.75;;;5.75;;
55172;SDS011;41061;52.822;6.860;2023-03-21T15:51:41;11.38;;;5.63;;
55172;SDS011;41061;52.822;6.860;2023-03-21T15:54:11;10.05;;;6.07;;
55172;SDS011;41061;52.822;6.860;2023-03-21T15:56:40;15.05;;;6.68;;
55172;SDS011;41061;52.822;6.860;2023-03-21T15:59:11;10.77;;;6.35;;
55172;SDS011;41061;52.822;6.860;2023-03-21T16:01:43;10.32;;;6.03;;
55172;SDS011;41061;52.822;6.860;2023-03-21T16:04:10;13.23;;;6.13;;
55172;SDS011;41061;52.822;6.860;2023-03-21T16:06:37;13.00;;;8.65;;
55172;SDS011;41061;52.822;6.860;2023-03-21T16:09:15;12.90;;;6.88;;
55172;SDS011;41061;52.822;6.860;2023-03-21T16:11:57;14.93;;;8.18;;
55172;SDS011;41061;52.822;6.860;2023-03-21T16:14:25;32.33;;;14.88;;
55172;SDS011;41061;52.822;6.860;2023-03-21T16:16:52;14.70;;;8.40;;
55172;SDS011;41061;52.822;6.860;2023-03-21T16:19:18;14.90;;;7.55;;
55172;SDS011;41061;52.822;6.860;2023-03-21T16:21:44;16.35;;;6.30;;
55172;SDS011;41061;52.822;6.860;2023-03-21T16:24:10;10.93;;;6.32;;
55172;SDS011;41061;52.822;6.860;2023-03-21T16:26:44;10.00;;;6.10;;
55172;SDS011;41061;52.822;6.860;2023-03-21T16:29:14;13.90;;;7.35;;
55172;SDS011;41061;52.822;6.860;2023-03-21T16:31:40;15.05;;;6.68;;
55172;SDS011;41061;52.822;6.860;2023-03-21T16:34:07;11.27;;;6.50;;
55172;SDS011;41061;52.822;6.860;2023-03-21T16:36:36;16.13;;;6.78;;
55172;SDS011;41061;52.822;6.860;2023-03-21T16:39:10;12.75;;;6.20;;
55172;SDS011;41061;52.822;6.860;2023-03-21T16:41:43;14.27;;;6.75;;
55172;SDS011;41061;52.822;6.860;2023-03-21T16:44:09;16.15;;;6.95;;